Time;durP1;ratioP1;P1;durP2;ratioP2;P2;SDS_P1;SDS_P2;PMS_P1;PMS_P2;Temp;Humidity;BMP_temperature;BMP_pressure;BME280_temperature;BME280_humidity;BME280_pressure;Samples;Min_cycle;Max_cycle;Signal;HPM_P1;HPM_P2
2022/01/14 00:00:19;;;;;;;7.30;5.38;;;;;;;14.02;45.92;101139.63;5097667;28;20020;-87
2022/01/14 00:02:44;;;;;;;10.60;6.50;;;;;;;14.07;45.92;101135.22;5098204;28;20058;-85
2022/01/14 00:05:10;;;;;;;8.20;5.78;;;;;;;14.08;45.86;101125.56;5114070;28;20035;-85
2022/01/14 00:07:36;;;;;;;8.13;5.53;;;;;;;14.06;45.90;101124.72;5098099;28;20024;-84
2022/01/14 00:10:01;;;;;;;8.23;5.50;;;;;;;14.04;46.01;101119.47;5096989;28;20075;-85
2022/01/14 00:12:35;;;;;;;8.30;5.97;;;;;;;13.98;46.05;101116.88;5097797;28;20124;-86
2022/01/14 00:15:23;;;;;;;8.75;5.43;;;;;;;13.97;46.27;101125.66;5096361;28;20035;-86
2022/01/14 00:17:46;;;;;;;7.65;6.10;;;;;;;14.00;46.03;101122.13;5097436;28;20030;-85
2022/01/14 00:20:12;;;;;;;7.78;5.45;;;;;;;14.00;45.93;101109.88;5096671;28;20465;-84
2022/01/14 00:22:38;;;;;;;9.40;6.20;;;;;;;13.98;45.88;101114.25;5096820;28;20016;-84
2022/01/14 00:35:29;;;;;;;8.25;5.90;;;;;;;14.00;45.84;101101.13;5097610;28;20032;-84
2022/01/14 00:37:55;;;;;;;9.10;6.43;;;;;;;13.99;45.93;101099.41;5096715;28;20012;-83
2022/01/14 00:40:21;;;;;;;8.02;5.82;;;;;;;13.96;46.06;101109.00;5096820;28;20024;-82
2022/01/14 00:42:48;;;;;;;8.63;5.78;;;;;;;13.92;45.91;101109.94;5096414;28;20035;-85
2022/01/14 00:45:14;;;;;;;8.50;6.07;;;;;;;13.94;46.13;101109.91;5098530;28;20019;-84
2022/01/14 00:47:40;;;;;;;8.13;6.10;;;;;;;13.95;45.98;101117.78;5095897;28;20052;-82
2022/01/14 00:50:08;;;;;;;8.60;6.43;;;;;;;13.91;45.93;101118.66;5096258;28;20035;-83
2022/01/14 00:52:35;;;;;;;8.32;5.90;;;;;;;13.88;46.11;101113.44;5097042;28;20028;-85
2022/01/14 00:55:00;;;;;;;8.55;6.05;;;;;;;13.93;46.08;101111.66;5095839;28;20110;-87
2022/01/14 01:00:11;;;;;;;7.80;5.65;;;;;;;13.95;46.10;101102.03;5097911;28;20476;-86
2022/01/14 01:02:36;;;;;;;7.63;5.22;;;;;;;13.91;45.93;101112.56;5095865;28;20057;-89
2022/01/14 01:05:02;;;;;;;7.57;6.03;;;;;;;13.91;45.91;101110.78;5095865;28;20028;-88
2022/01/14 01:07:28;;;;;;;8.80;6.80;;;;;;;13.90;46.00;101111.66;5095790;28;20342;-88
2022/01/14 01:09:53;;;;;;;7.75;5.72;;;;;;;13.85;45.79;101113.44;5095857;28;20074;-85
2022/01/14 01:15:06;;;;;;;8.18;5.72;;;;;;;13.91;46.08;101117.81;5096359;28;20166;-87
2022/01/14 01:17:33;;;;;;;7.70;5.72;;;;;;;13.89;45.95;101104.69;5095637;28;20028;-86
2022/01/14 01:20:00;;;;;;;7.57;5.93;;;;;;;13.92;45.86;101107.31;5113767;28;20035;-87
2022/01/14 01:22:26;;;;;;;8.18;5.68;;;;;;;13.92;46.00;101109.94;5096974;28;20020;-86
2022/01/14 01:24:52;;;;;;;8.63;5.72;;;;;;;13.88;46.28;101108.19;5095282;28;20028;-86
2022/01/14 01:27:20;;;;;;;8.40;5.95;;;;;;;13.90;45.86;101106.41;5095922;28;20378;-86
2022/01/14 01:29:51;;;;;;;7.55;5.50;;;;;;;13.86;46.02;101103.81;5096369;28;20023;-86
2022/01/14 01:32:17;;;;;;;7.60;5.47;;;;;;;13.90;45.86;101111.66;5096449;28;20364;-86
2022/01/14 01:34:43;;;;;;;7.40;5.55;;;;;;;13.90;46.06;101110.81;5095253;28;20019;-85
2022/01/14 01:37:09;;;;;;;7.43;5.30;;;;;;;13.87;45.94;101111.69;5112016;28;20028;-84
2022/01/14 01:39:36;;;;;;;9.25;5.40;;;;;;;13.90;46.12;101101.16;5096017;28;20423;-88
2022/01/14 01:42:06;;;;;;;7.93;5.75;;;;;;;13.88;46.13;101115.19;5095142;28;20093;-84
2022/01/14 01:44:33;;;;;;;7.65;5.78;;;;;;;13.93;46.01;101113.41;5112424;28;20074;-88
2022/01/14 01:47:00;;;;;;;7.00;5.50;;;;;;;13.95;45.88;101115.16;5094945;28;20040;-89
2022/01/14 01:49:29;;;;;;;7.63;5.60;;;;;;;13.94;46.03;101113.41;5096391;28;20452;-86
2022/01/14 01:51:55;;;;;;;7.93;5.43;;;;;;;13.92;45.79;101115.19;5095039;28;20035;-88
2022/01/14 01:54:24;;;;;;;7.68;5.88;;;;;;;13.92;46.00;101114.28;5095361;28;20031;-86
2022/01/14 01:56:51;;;;;;;8.52;6.43;;;;;;;13.93;45.97;101122.16;5094724;28;20101;-86
2022/01/14 01:59:18;;;;;;;7.78;5.53;;;;;;;13.92;45.91;101119.53;5096276;28;20024;-87
2022/01/14 02:01:44;;;;;;;7.28;5.63;;;;;;;13.94;45.99;101117.78;5094843;28;20478;-88
2022/01/14 02:04:09;;;;;;;7.40;5.60;;;;;;;13.94;45.95;101109.91;5096190;28;20106;-89
2022/01/14 02:06:38;;;;;;;7.18;5.65;;;;;;;13.92;46.13;101104.69;5095739;28;20076;-86
2022/01/14 02:09:05;;;;;;;8.27;5.30;;;;;;;13.91;46.20;101112.56;5096758;28;20079;-86
2022/01/14 02:11:31;;;;;;;7.13;5.18;;;;;;;13.93;46.10;101111.66;5096957;28;20023;-87
2022/01/14 02:13:59;;;;;;;7.88;5.18;;;;;;;13.87;45.99;101114.31;5094858;28;20365;-86
2022/01/14 02:16:47;;;;;;;8.32;5.82;;;;;;;13.92;46.17;101114.28;5094627;28;20052;-85
2022/01/14 02:24:54;;;;;;;8.27;5.68;;;;;;;13.88;46.08;101107.31;5095285;28;20491;-86
2022/01/14 02:27:19;;;;;;;6.73;4.87;;;;;;;13.88;46.13;101100.31;5095010;28;20107;-86
2022/01/14 02:29:44;;;;;;;7.25;5.47;;;;;;;13.89;45.95;101102.06;5094303;28;20831;-87
2022/01/14 02:32:10;;;;;;;7.97;5.85;;;;;;;13.87;46.04;101106.44;5094249;28;20386;-86
2022/01/14 02:34:37;;;;;;;7.72;5.43;;;;;;;13.86;46.16;101099.47;5094082;28;20031;-86
2022/01/14 02:37:04;;;;;;;7.80;5.13;;;;;;;13.85;46.06;101108.19;5094288;28;20024;-87
2022/01/14 02:39:30;;;;;;;7.75;5.60;;;;;;;13.86;45.89;101094.22;5094331;28;20034;-87
2022/01/14 02:41:56;;;;;;;7.70;5.47;;;;;;;13.88;45.97;101087.19;5094263;28;20020;-86
2022/01/14 02:44:25;;;;;;;7.63;5.68;;;;;;;13.86;45.81;101094.22;5095048;28;20043;-86
2022/01/14 02:46:56;;;;;;;7.90;5.75;;;;;;;13.81;46.01;101090.75;5110558;28;20040;-84
2022/01/14 02:49:26;;;;;;;8.25;5.72;;;;;;;13.83;46.07;101088.97;5093710;28;20024;-86
2022/01/14 02:51:52;;;;;;;7.60;5.85;;;;;;;13.84;46.02;101082.84;5093944;28;20020;-86
2022/01/14 02:54:23;;;;;;;7.43;5.20;;;;;;;13.81;46.06;101086.34;5093948;28;20020;-86
2022/01/14 02:56:52;;;;;;;7.43;5.63;;;;;;;13.80;46.00;101076.72;5094155;28;20020;-85
2022/01/14 02:59:19;;;;;;;7.35;5.13;;;;;;;13.82;45.99;101076.72;5095564;28;20020;-87
2022/01/14 03:01:46;;;;;;;8.70;6.05;;;;;;;13.81;45.92;101077.63;5097312;28;20522;-85
2022/01/14 03:04:18;;;;;;;7.32;5.47;;;;;;;13.82;45.96;101068.88;5093924;28;20413;-85
2022/01/14 03:06:44;;;;;;;8.32;5.55;;;;;;;13.84;45.87;101069.72;5093936;28;20035;-87
2022/01/14 03:09:10;;;;;;;9.02;5.80;;;;;;;13.79;45.91;101067.13;5096869;28;20514;-87
2022/01/14 03:12:08;;;;;;;8.13;5.45;;;;;;;13.76;45.99;101061.88;5097871;28;20024;-87
2022/01/14 03:14:34;;;;;;;7.50;5.47;;;;;;;13.76;45.98;101066.28;5080437;28;20138;-88
2022/01/14 03:17:01;;;;;;;7.70;5.40;;;;;;;13.74;45.87;101060.13;5098804;28;20522;-86
2022/01/14 03:19:27;;;;;;;6.90;4.85;;;;;;;13.70;45.86;101056.66;5115098;28;20471;-85
2022/01/14 03:22:18;;;;;;;7.72;5.93;;;;;;;13.69;45.97;101054.91;5098861;28;20039;-87
2022/01/14 03:27:10;;;;;;;7.78;5.60;;;;;;;13.73;45.98;101055.78;5098696;28;20030;-86
2022/01/14 03:29:36;;;;;;;7.50;5.20;;;;;;;13.65;45.80;101046.19;5114952;28;20088;-86
2022/01/14 03:32:03;;;;;;;6.82;5.30;;;;;;;13.61;45.99;101041.84;5097852;28;20040;-87
2022/01/14 03:34:32;;;;;;;6.78;4.85;;;;;;;13.58;45.91;101033.13;5097905;28;20028;-86
2022/01/14 03:36:58;;;;;;;6.75;4.78;;;;;;;13.52;46.19;101019.16;5097503;28;20020;-88
2022/01/14 03:39:24;;;;;;;7.47;5.22;;;;;;;13.55;46.04;101036.63;5114829;28;20027;-86
2022/01/14 03:41:50;;;;;;;7.47;5.20;;;;;;;13.61;46.08;101035.75;5098710;28;20055;-87
2022/01/14 03:44:16;;;;;;;7.82;5.07;;;;;;;13.61;45.88;101031.34;5098772;28;20024;-86
2022/01/14 03:46:42;;;;;;;7.47;5.20;;;;;;;13.61;45.77;101031.34;5097083;28;20076;-87
2022/01/14 03:49:08;;;;;;;7.10;4.90;;;;;;;13.64;45.91;101025.22;5098750;28;20111;-87
2022/01/14 03:51:34;;;;;;;7.13;5.43;;;;;;;13.57;45.84;101029.63;5097669;28;20107;-87
2022/01/14 03:53:59;;;;;;;7.30;5.18;;;;;;;13.59;45.87;101032.22;5114511;28;20047;-87
2022/01/14 03:56:28;;;;;;;7.32;5.28;;;;;;;13.62;45.85;101035.75;5098321;28;20047;-87
2022/01/14 03:58:54;;;;;;;6.68;4.85;;;;;;;13.64;45.88;101030.47;5099027;28;20035;-88
2022/01/14 04:01:21;;;;;;;7.10;5.15;;;;;;;13.62;45.88;101037.47;5103380;28;20063;-86
2022/01/14 04:03:47;;;;;;;7.40;5.00;;;;;;;13.60;45.91;101029.59;5096955;28;20415;-86
2022/01/14 04:06:14;;;;;;;6.57;5.00;;;;;;;13.60;45.96;101023.50;5096818;28;20102;-85
2022/01/14 04:08:40;;;;;;;7.55;5.63;;;;;;;13.54;46.03;101024.41;5096792;28;20097;-86
2022/01/14 04:11:07;;;;;;;7.72;5.60;;;;;;;13.48;45.94;101029.66;5096831;28;20023;-86
2022/01/14 04:13:38;;;;;;;7.22;5.43;;;;;;;13.48;45.78;101030.56;5097904;28;20405;-89
2022/01/14 04:16:04;;;;;;;7.00;4.60;;;;;;;13.51;45.96;101024.44;5113873;28;20453;-85
2022/01/14 04:18:30;;;;;;;6.88;5.28;;;;;;;13.51;45.98;101019.19;5097697;28;20020;-87
2022/01/14 04:20:55;;;;;;;6.65;4.72;;;;;;;13.46;45.80;101015.66;5114392;28;20062;-86
2022/01/14 04:23:23;;;;;;;6.28;4.82;;;;;;;13.47;45.93;101015.66;5097863;28;20039;-88
2022/01/14 04:25:53;;;;;;;6.28;5.00;;;;;;;13.47;45.85;101020.91;5098514;28;20377;-88
2022/01/14 04:28:21;;;;;;;6.32;4.82;;;;;;;13.47;46.06;101018.28;5114109;28;20119;-89
2022/01/14 04:30:48;;;;;;;5.97;5.00;;;;;;;13.48;45.86;101021.81;5096592;28;20342;-88
2022/01/14 04:33:14;;;;;;;6.03;4.07;;;;;;;13.49;45.68;101032.28;5097663;28;20024;-86
2022/01/14 04:35:40;;;;;;;6.05;4.57;;;;;;;13.45;45.78;101022.66;5097111;28;20028;-85
2022/01/14 04:38:06;;;;;;;6.30;4.07;;;;;;;13.42;45.93;101015.66;5098549;28;20019;-86
2022/01/14 04:40:32;;;;;;;6.32;4.55;;;;;;;13.45;45.87;101011.31;5099556;28;20470;-86
2022/01/14 04:42:59;;;;;;;5.93;4.78;;;;;;;13.43;45.87;101006.91;5101214;28;20074;-86
2022/01/14 04:48:01;;;;;;;5.90;4.20;;;;;;;13.46;45.81;101013.03;5099223;28;20040;-85
2022/01/14 04:50:26;;;;;;;5.63;3.67;;;;;;;13.40;45.88;101008.69;5096101;28;20024;-85
2022/01/14 04:52:52;;;;;;;7.05;4.93;;;;;;;13.42;45.80;101010.41;5112971;28;20059;-87
2022/01/14 04:55:21;;;;;;;6.55;4.28;;;;;;;13.45;45.81;101013.94;5113103;28;20327;-87
2022/01/14 04:57:47;;;;;;;5.80;4.00;;;;;;;13.47;45.75;101012.19;5097172;28;20024;-86
2022/01/14 05:00:19;;;;;;;5.25;3.67;;;;;;;13.45;45.72;101013.94;5096472;28;20039;-87
2022/01/14 05:02:45;;;;;;;6.45;4.53;;;;;;;13.42;45.80;101022.69;5095672;28;20373;-87
2022/01/14 05:05:12;;;;;;;6.18;4.03;;;;;;;13.46;45.83;101034.91;5095837;28;20357;-88
2022/01/14 05:07:38;;;;;;;5.82;3.90;;;;;;;13.49;45.74;101028.78;5095794;28;20368;-87
2022/01/14 05:12:36;;;;;;;6.38;3.80;;;;;;;13.42;45.73;101025.31;5097044;28;20024;-87
2022/01/14 05:15:03;;;;;;;5.97;3.92;;;;;;;13.41;45.65;101029.66;5095436;28;20035;-86
2022/01/14 05:17:29;;;;;;;5.93;4.45;;;;;;;13.43;45.80;101022.66;5095879;28;20059;-85
2022/01/14 05:19:57;;;;;;;5.93;4.03;;;;;;;13.46;45.77;101027.03;5097369;28;20062;-87
2022/01/14 05:22:23;;;;;;;5.60;3.92;;;;;;;13.42;45.65;101020.91;5095487;28;20024;-87
2022/01/14 05:24:49;;;;;;;5.45;4.05;;;;;;;13.42;45.90;101020.91;5113235;28;20097;-86
2022/01/14 05:27:15;;;;;;;5.78;4.00;;;;;;;13.41;45.72;101008.69;5096475;28;20028;-86
2022/01/14 05:29:40;;;;;;;5.82;4.03;;;;;;;13.43;45.67;101012.16;5095228;28;20024;-86
2022/01/14 05:32:12;;;;;;;5.57;4.07;;;;;;;13.41;45.66;101019.19;5111496;28;20469;-87
2022/01/14 05:34:39;;;;;;;6.00;3.95;;;;;;;13.39;45.69;100999.97;5095205;28;20024;-86
2022/01/14 05:37:05;;;;;;;5.28;3.78;;;;;;;13.43;45.95;101006.91;5095273;28;20111;-86
2022/01/14 05:39:31;;;;;;;6.53;4.20;;;;;;;13.29;45.77;101008.75;5095386;28;20088;-87
2022/01/14 05:41:58;;;;;;;5.50;3.70;;;;;;;13.29;45.87;101006.13;5095244;28;20445;-87
2022/01/14 05:44:24;;;;;;;5.80;3.90;;;;;;;13.28;45.81;101007.00;5095366;28;20066;-87
2022/01/14 05:46:55;;;;;;;5.55;3.55;;;;;;;13.29;45.75;101003.50;5101644;28;20055;-86
2022/01/14 05:49:21;;;;;;;6.15;4.38;;;;;;;13.33;45.62;101005.25;5094844;28;20020;-87
2022/01/14 05:51:47;;;;;;;5.85;4.40;;;;;;;13.29;45.67;101001.75;5095101;28;20373;-87
2022/01/14 05:54:13;;;;;;;5.47;3.60;;;;;;;13.28;45.91;101009.63;5095222;28;20032;-88
2022/01/14 05:56:39;;;;;;;5.38;3.60;;;;;;;13.27;45.76;101006.13;5094983;28;20353;-86
2022/01/14 05:59:05;;;;;;;5.15;3.47;;;;;;;13.29;45.70;101003.50;5095101;28;20047;-86
2022/01/14 06:01:30;;;;;;;5.88;3.95;;;;;;;13.30;45.65;101005.22;5112023;28;20059;-88
2022/01/14 06:04:00;;;;;;;4.82;3.53;;;;;;;13.29;45.65;100995.63;5095145;28;20445;-88
2022/01/14 06:06:27;;;;;;;5.53;4.00;;;;;;;13.30;45.58;100994.75;5112153;28;20027;-86
2022/01/14 06:08:52;;;;;;;5.32;3.70;;;;;;;13.25;45.62;101001.75;5097734;28;20044;-87
2022/01/14 06:11:19;;;;;;;5.22;3.75;;;;;;;13.26;45.61;100998.25;5095322;28;20066;-87
2022/01/14 06:13:45;;;;;;;5.43;3.50;;;;;;;13.25;45.56;101001.75;5095038;28;20364;-86
2022/01/14 06:16:14;;;;;;;5.85;4.13;;;;;;;13.29;45.60;101001.75;5094738;28;20032;-87
2022/01/14 06:18:40;;;;;;;5.97;3.70;;;;;;;13.19;45.59;100996.53;5094865;28;20051;-87
2022/01/14 06:21:06;;;;;;;5.60;3.70;;;;;;;13.18;45.69;101002.66;5112026;28;20028;-87
2022/01/14 06:23:33;;;;;;;5.90;3.90;;;;;;;13.14;45.76;101010.53;5095096;28;20035;-86
2022/01/14 06:25:59;;;;;;;5.90;4.13;;;;;;;13.11;45.70;101010.53;5095036;28;20024;-89
2022/01/14 06:28:25;;;;;;;6.40;4.10;;;;;;;13.09;45.61;101001.84;5094575;28;20035;-88
2022/01/14 06:30:51;;;;;;;6.43;4.22;;;;;;;13.00;45.50;100997.50;5097744;28;20357;-89
2022/01/14 06:33:16;;;;;;;5.70;3.70;;;;;;;13.03;45.61;100996.63;5111551;28;20377;-87
2022/01/14 06:35:42;;;;;;;5.95;4.00;;;;;;;13.08;45.64;100994.81;5095123;28;20106;-89
2022/01/14 06:38:08;;;;;;;5.85;4.15;;;;;;;13.04;45.64;100998.34;5095834;28;20484;-88
2022/01/14 06:40:34;;;;;;;5.90;4.22;;;;;;;13.09;45.43;100999.22;5094399;28;20477;-85
2022/01/14 06:43:01;;;;;;;6.53;4.75;;;;;;;13.03;45.54;100994.00;5094201;28;20110;-87
2022/01/14 06:45:27;;;;;;;6.18;4.10;;;;;;;13.04;45.38;100998.34;5094244;28;20405;-87
2022/01/14 06:47:53;;;;;;;5.45;3.90;;;;;;;13.09;45.57;100995.69;5095039;28;20136;-87
2022/01/14 06:50:19;;;;;;;6.35;3.65;;;;;;;13.11;45.60;100994.81;5094243;28;20124;-87
2022/01/14 06:52:45;;;;;;;5.80;3.95;;;;;;;13.11;45.43;100994.81;5094167;28;20024;-87
2022/01/14 06:55:11;;;;;;;6.32;4.15;;;;;;;13.10;45.45;100998.31;5094271;28;20039;-88
2022/01/14 06:57:37;;;;;;;6.57;4.25;;;;;;;13.08;45.57;101002.69;5094257;28;20016;-85
2022/01/14 07:00:09;;;;;;;5.75;3.63;;;;;;;13.02;45.79;101005.31;5094971;28;20038;-87
2022/01/14 07:02:35;;;;;;;5.82;3.85;;;;;;;13.05;45.67;101005.31;5111258;28;20028;-87
2022/01/14 07:05:00;;;;;;;5.88;3.88;;;;;;;13.07;45.59;101003.56;5094224;28;20117;-89
2022/01/14 07:07:26;;;;;;;6.82;4.57;;;;;;;12.98;45.60;100999.22;5094946;28;20077;-88
2022/01/14 07:09:58;;;;;;;6.18;3.67;;;;;;;13.01;45.64;101003.59;5098629;28;20036;-88
2022/01/14 07:12:43;;;;;;;6.38;4.25;;;;;;;13.03;45.45;101002.69;5099293;28;20028;-86
2022/01/14 07:15:11;;;;;;;6.05;4.20;;;;;;;13.04;45.37;101006.22;5093586;28;20039;-87
2022/01/14 07:17:38;;;;;;;6.40;4.30;;;;;;;13.03;45.39;101007.09;5094741;28;20020;-86
2022/01/14 07:20:11;;;;;;;7.05;4.55;;;;;;;12.95;45.45;101003.59;5095012;28;20485;-86
2022/01/14 07:22:37;;;;;;;6.20;4.20;;;;;;;12.97;45.57;101007.06;5093662;28;20224;-86
2022/01/14 07:25:04;;;;;;;6.90;4.30;;;;;;;12.99;45.56;101002.72;5093786;28;20028;-87
2022/01/14 07:27:29;;;;;;;5.68;3.80;;;;;;;12.97;45.73;101001.84;5098021;28;20028;-87
2022/01/14 07:29:55;;;;;;;5.50;3.53;;;;;;;12.98;45.44;101014.09;5093967;28;20419;-85
2022/01/14 07:32:22;;;;;;;7.22;4.45;;;;;;;12.97;45.30;101004.47;5093890;28;20028;-88
2022/01/14 07:34:48;;;;;;;5.88;4.07;;;;;;;12.97;45.46;101007.06;5110896;28;20032;-87
2022/01/14 07:37:14;;;;;;;6.20;4.28;;;;;;;12.91;45.51;101005.34;5093788;28;20059;-86
2022/01/14 07:39:40;;;;;;;5.90;3.63;;;;;;;12.97;45.24;101001.84;5094028;28;20031;-86
2022/01/14 07:42:06;;;;;;;6.13;4.20;;;;;;;12.96;45.59;101010.59;5093755;28;20028;-85
2022/01/14 07:44:32;;;;;;;6.15;4.22;;;;;;;12.98;45.49;101014.09;5094007;28;20024;-87
2022/01/14 07:46:57;;;;;;;6.47;4.38;;;;;;;12.97;45.51;101009.69;5093386;28;20461;-87
2022/01/14 07:49:23;;;;;;;6.88;4.72;;;;;;;12.97;45.54;101012.31;5093652;28;20192;-87
2022/01/14 07:51:48;;;;;;;6.03;3.95;;;;;;;12.96;45.37;101019.31;5093617;28;20023;-87
2022/01/14 07:54:14;;;;;;;5.93;4.35;;;;;;;12.89;45.55;101021.06;5094718;28;20111;-85
2022/01/14 07:56:47;;;;;;;5.97;4.53;;;;;;;12.93;45.60;101019.31;5098478;28;20418;-85
2022/01/14 07:59:15;;;;;;;6.65;4.60;;;;;;;12.92;45.47;101014.09;5101403;28;20354;-86
2022/01/14 08:01:42;;;;;;;6.68;4.75;;;;;;;12.89;45.59;101005.34;5097875;28;20024;-86
2022/01/14 08:04:08;;;;;;;6.47;4.57;;;;;;;12.89;45.54;101010.59;5097035;28;20038;-87
2022/01/14 08:06:38;;;;;;;6.97;4.95;;;;;;;12.89;45.51;101010.59;5096952;28;20114;-85
2022/01/14 08:09:03;;;;;;;6.93;4.32;;;;;;;12.94;45.44;101012.34;5098149;28;20028;-87
2022/01/14 08:11:29;;;;;;;6.35;4.43;;;;;;;12.95;45.54;101009.72;5099216;28;20097;-86
2022/01/14 08:13:55;;;;;;;8.25;4.63;;;;;;;12.93;45.49;101011.47;5116018;28;20024;-86
2022/01/14 08:16:21;;;;;;;7.05;4.47;;;;;;;12.94;45.49;101018.47;5097210;28;20111;-88
2022/01/14 08:18:46;;;;;;;7.07;5.15;;;;;;;12.93;45.43;101010.59;5097131;28;20028;-85
2022/01/14 08:21:12;;;;;;;8.63;4.95;;;;;;;12.89;45.64;101010.59;5096683;28;20112;-86
2022/01/14 08:23:39;;;;;;;7.70;5.22;;;;;;;12.93;45.46;101005.38;5096902;28;20042;-86
2022/01/14 08:26:05;;;;;;;7.28;4.82;;;;;;;12.95;45.58;101011.47;5096907;28;20111;-87
2022/01/14 08:28:30;;;;;;;7.25;4.75;;;;;;;12.93;45.60;101011.47;5099740;28;20070;-85
2022/01/14 08:30:56;;;;;;;7.82;4.88;;;;;;;12.95;45.45;101004.50;5097933;28;20031;-87
2022/01/14 08:33:21;;;;;;;6.85;5.10;;;;;;;13.01;45.48;101011.44;5097788;28;20051;-86
2022/01/14 08:35:47;;;;;;;8.98;5.10;;;;;;;12.98;45.51;101011.47;5096979;28;20039;-86
2022/01/14 08:38:14;;;;;;;6.65;4.60;;;;;;;12.99;45.54;101016.69;5096972;28;20065;-88
2022/01/14 08:40:40;;;;;;;7.43;4.53;;;;;;;12.95;45.59;101019.31;5097895;28;20024;-88
2022/01/14 08:43:07;;;;;;;7.05;4.68;;;;;;;13.03;45.52;101012.34;5096752;28;20036;-86
2022/01/14 08:45:33;;;;;;;7.18;5.05;;;;;;;12.99;45.46;101021.94;5097081;28;20059;-87
2022/01/14 08:47:59;;;;;;;7.20;5.13;;;;;;;13.03;45.54;101022.81;5097361;28;20186;-88
2022/01/14 08:50:29;;;;;;;7.10;4.88;;;;;;;12.99;45.59;101015.81;5097154;28;20040;-86
2022/01/14 08:52:55;;;;;;;7.00;4.43;;;;;;;12.98;45.52;101016.72;5097174;28;20089;-86
2022/01/14 08:55:22;;;;;;;8.52;5.78;;;;;;;13.01;45.50;101014.06;5097543;28;20051;-87
2022/01/14 08:57:48;;;;;;;8.50;5.25;;;;;;;13.03;45.70;101017.56;5113927;28;20055;-87
2022/01/14 09:00:16;;;;;;;7.43;5.20;;;;;;;13.02;45.68;101021.94;5096302;28;20028;-86
2022/01/14 09:02:42;;;;;;;6.88;4.47;;;;;;;12.99;45.66;101021.06;5096320;28;20111;-86
2022/01/14 09:05:08;;;;;;;6.75;4.88;;;;;;;13.00;45.86;101010.59;5097175;28;20084;-84
2022/01/14 09:07:34;;;;;;;7.90;5.30;;;;;;;12.97;45.73;101014.94;5097424;28;20401;-87
2022/01/14 09:10:00;;;;;;;7.05;5.60;;;;;;;13.00;45.60;101021.06;5097249;28;20103;-88
2022/01/14 09:12:25;;;;;;;6.70;4.80;;;;;;;12.99;45.63;101021.94;5097165;28;20103;-87
2022/01/14 09:14:51;;;;;;;8.27;5.03;;;;;;;12.98;45.70;101019.34;5096319;28;20034;-84
2022/01/14 09:17:17;;;;;;;7.53;5.00;;;;;;;12.99;45.87;101015.81;5097246;28;20028;-86
2022/01/14 09:19:43;;;;;;;8.27;5.00;;;;;;;13.01;45.73;101024.56;5095770;28;20023;-86
2022/01/14 09:22:10;;;;;;;7.93;5.53;;;;;;;12.97;45.84;101020.19;5097427;28;20032;-84
2022/01/14 09:24:36;;;;;;;8.38;5.22;;;;;;;12.96;45.79;101013.19;5096798;28;20130;-86
2022/01/14 09:27:02;;;;;;;7.53;5.00;;;;;;;12.97;45.93;101012.31;5097199;28;20020;-85
2022/01/14 09:29:27;;;;;;;6.93;5.28;;;;;;;12.96;45.92;101023.69;5097226;28;20360;-84
2022/01/14 09:31:53;;;;;;;7.47;5.30;;;;;;;12.95;46.03;101014.97;5097601;28;20027;-88
2022/01/14 09:34:18;;;;;;;7.07;4.88;;;;;;;12.94;45.99;101018.47;5096901;28;20092;-84
2022/01/14 09:36:45;;;;;;;8.50;5.32;;;;;;;12.96;45.84;101013.19;5097979;28;20035;-87
2022/01/14 09:39:11;;;;;;;7.07;5.03;;;;;;;12.98;45.89;101021.94;5097437;28;20028;-85
2022/01/14 09:41:37;;;;;;;7.55;5.20;;;;;;;12.98;45.96;101021.94;5100008;28;20054;-85
2022/01/14 09:44:03;;;;;;;6.85;5.03;;;;;;;13.00;45.99;101028.06;5098339;28;20453;-84
2022/01/14 09:46:29;;;;;;;7.97;5.30;;;;;;;12.96;46.06;101019.31;5096008;28;20139;-85
2022/01/14 09:48:55;;;;;;;7.55;5.75;;;;;;;12.99;45.82;101031.56;5095087;28;20028;-86
2022/01/14 09:51:21;;;;;;;7.18;5.50;;;;;;;13.00;46.18;101030.66;5095009;28;20362;-84
2022/01/14 09:53:47;;;;;;;8.93;5.88;;;;;;;12.98;46.04;101024.56;5095121;28;20081;-86
2022/01/14 09:56:19;;;;;;;7.20;5.28;;;;;;;13.02;45.84;101032.41;5094901;28;20368;-85
2022/01/14 09:58:49;;;;;;;6.78;5.05;;;;;;;12.98;45.93;101029.81;5095641;28;20066;-87
2022/01/14 10:01:20;;;;;;;9.27;5.32;;;;;;;13.03;45.96;101022.81;5095773;28;20023;-85
2022/01/14 10:04:01;;;;;;;7.50;5.10;;;;;;;12.98;46.07;101020.19;5096101;28;20035;-86
2022/01/14 10:06:47;;;;;;;8.40;5.40;;;;;;;12.98;46.21;101020.19;5094697;28;20036;-85
2022/01/14 10:09:23;;;;;;;7.00;4.97;;;;;;;12.99;46.18;101021.06;5095848;28;20422;-86
2022/01/14 10:12:20;;;;;;;7.55;5.07;;;;;;;13.05;46.11;101018.44;5095958;28;20043;-86
2022/01/14 10:15:08;;;;;;;9.52;6.07;;;;;;;13.03;45.86;101026.28;5094435;28;20031;-86
2022/01/14 10:17:40;;;;;;;7.18;4.65;;;;;;;13.01;46.24;101014.06;5095635;28;20448;-86
2022/01/14 10:20:09;;;;;;;7.75;5.15;;;;;;;13.03;46.13;101017.56;5094879;28;20066;-85
2022/01/14 10:22:40;;;;;;;7.53;5.28;;;;;;;13.02;46.23;101010.56;5094526;28;20051;-85
2022/01/14 10:25:10;;;;;;;7.60;5.60;;;;;;;13.03;45.97;101012.34;5094742;28;20024;-84
2022/01/14 10:27:42;;;;;;;7.38;5.70;;;;;;;13.06;46.32;101016.66;5094535;28;20097;-87
2022/01/14 10:30:20;;;;;;;8.80;5.68;;;;;;;13.05;46.13;101017.53;5111700;28;20027;-86
2022/01/14 10:32:59;;;;;;;7.43;5.38;;;;;;;13.05;46.19;101021.06;5095604;28;20038;-87
2022/01/14 10:35:27;;;;;;;7.32;5.40;;;;;;;13.01;46.28;101014.94;5095593;28;20020;-86
2022/01/14 10:37:59;;;;;;;8.30;5.80;;;;;;;13.03;46.21;101012.34;5094234;28;20024;-86
2022/01/14 10:40:28;;;;;;;7.68;5.50;;;;;;;13.04;46.20;101014.06;5095252;28;20035;-86
2022/01/14 10:43:06;;;;;;;8.43;5.85;;;;;;;13.04;46.26;101008.84;5095275;28;20054;-85
2022/01/14 10:45:34;;;;;;;7.53;5.70;;;;;;;13.03;46.33;101004.47;5110971;28;20048;-87
2022/01/14 10:48:08;;;;;;;8.00;5.55;;;;;;;12.98;46.12;100996.59;5094771;28;20040;-86
2022/01/14 10:50:38;;;;;;;8.60;6.07;;;;;;;13.01;46.22;100994.00;5095114;28;20032;-85
2022/01/14 10:53:14;;;;;;;7.85;5.53;;;;;;;12.99;46.04;100993.09;5094304;28;20032;-85
2022/01/14 10:55:49;;;;;;;8.30;5.80;;;;;;;13.03;46.19;100996.63;5094769;28;20020;-84
2022/01/14 10:58:24;;;;;;;8.10;5.78;;;;;;;13.03;46.19;100984.34;5094128;28;20124;-85
2022/01/14 11:00:59;;;;;;;8.05;5.93;;;;;;;13.02;46.28;100987.88;5094131;28;20035;-87
2022/01/14 11:04:00;;;;;;;8.57;5.85;;;;;;;13.05;46.23;100989.59;5111209;28;20016;-85
2022/01/14 11:06:36;;;;;;;8.10;5.65;;;;;;;13.03;46.18;100981.75;5093901;28;20028;-88
2022/01/14 11:09:17;;;;;;;10.00;6.15;;;;;;;13.01;46.22;100967.78;5095191;28;20016;-84
2022/01/14 11:11:45;;;;;;;10.35;6.28;;;;;;;13.03;46.00;100970.41;5094107;28;20181;-86
2022/01/14 11:14:11;;;;;;;8.30;5.60;;;;;;;13.02;46.14;100968.63;5094122;28;20085;-85
2022/01/14 11:16:38;;;;;;;7.93;5.63;;;;;;;13.04;46.27;100966.91;5094090;28;20338;-86
2022/01/14 11:19:07;;;;;;;7.55;5.47;;;;;;;13.03;46.14;100958.16;5111758;28;20457;-88
2022/01/14 11:24:29;;;;;;;9.25;5.93;;;;;;;13.05;46.17;100958.16;5095370;28;20031;-86
2022/01/14 11:27:00;;;;;;;7.80;5.63;;;;;;;13.03;46.22;100962.53;5095070;28;20024;-85
2022/01/14 11:29:31;;;;;;;8.10;5.78;;;;;;;13.00;46.40;100959.91;5095962;28;20062;-85
2022/01/14 11:32:00;;;;;;;7.90;5.32;;;;;;;13.03;46.37;100960.78;5098027;28;20475;-85
2022/01/14 11:34:32;;;;;;;8.55;5.40;;;;;;;13.03;46.27;100959.91;5098938;28;20338;-85
2022/01/14 11:37:00;;;;;;;7.20;5.53;;;;;;;13.01;46.28;100956.41;5098033;28;20023;-86
2022/01/14 11:39:30;;;;;;;8.00;6.07;;;;;;;13.00;46.32;100955.56;5114882;28;20047;-86
2022/01/14 11:42:03;;;;;;;7.43;5.30;;;;;;;13.03;46.24;100957.31;5114881;28;20469;-87
2022/01/14 11:44:45;;;;;;;8.07;5.65;;;;;;;13.03;46.35;100959.91;5114550;28;20034;-86
2022/01/14 11:47:47;;;;;;;7.93;5.25;;;;;;;13.04;46.22;100951.19;5097378;28;20039;-87
2022/01/14 11:50:19;;;;;;;9.18;6.22;;;;;;;13.04;46.34;100940.69;5097482;28;20032;-87
2022/01/14 11:52:46;;;;;;;8.63;5.80;;;;;;;13.03;46.23;100933.72;5097592;28;20024;-84
2022/01/14 11:55:14;;;;;;;8.73;5.82;;;;;;;13.02;46.16;100932.81;5097894;28;20516;-86
2022/01/14 11:57:46;;;;;;;7.80;5.78;;;;;;;13.03;46.09;100928.47;5098536;28;20020;-85
2022/01/14 12:00:30;;;;;;;8.27;5.35;;;;;;;13.03;46.27;100918.00;5098460;28;20020;-89